createdAt,value
2018-03-06T00:00:00.553Z,993.15
2018-03-06T00:01:00.525Z,993.14
2018-03-06T00:02:00.485Z,993.14
2018-03-06T00:03:00.453Z,993.14
2018-03-06T00:04:00.433Z,993.09
2018-03-06T00:05:00.396Z,993.08
2018-03-06T00:06:00.362Z,993.11
2018-03-06T00:07:00.582Z,993.16
2018-03-06T00:08:00.300Z,993.14
2018-03-06T00:09:00.271Z,993.16
2018-03-06T00:10:00.280Z,993.13
2018-03-06T00:11:00.210Z,993.15
2018-03-06T00:12:00.180Z,993.17
2018-03-06T00:13:00.149Z,993.22
2018-03-06T00:14:00.120Z,993.20
2018-03-06T00:15:00.083Z,993.15
2018-03-06T00:16:00.050Z,993.14
2018-03-06T00:17:00.023Z,993.12
2018-03-06T00:17:59.987Z,993.15
2018-03-06T00:19:00.208Z,993.17
2018-03-06T00:19:59.928Z,993.09
2018-03-06T00:20:59.899Z,993.12
2018-03-06T00:21:59.859Z,993.12
2018-03-06T00:22:59.834Z,993.09
2018-03-06T00:23:59.795Z,993.12
2018-03-06T00:24:59.772Z,993.11
2018-03-06T00:25:59.740Z,993.14
2018-03-06T00:26:59.706Z,993.04
2018-03-06T00:27:59.684Z,993.07
2018-03-06T00:28:59.642Z,993.02
2018-03-06T00:29:59.616Z,993.03
2018-03-06T00:30:59.882Z,993.02
2018-03-06T00:31:59.555Z,993.03
2018-03-06T00:32:59.523Z,993.02
2018-03-06T00:33:59.486Z,993.05
2018-03-06T00:34:59.456Z,993.06
2018-03-06T00:35:59.423Z,993.01
2018-03-06T00:36:59.430Z,993.01
2018-03-06T00:37:59.390Z,992.93
2018-03-06T00:38:59.329Z,993.00
2018-03-06T00:39:59.327Z,993.01
2018-03-06T00:40:59.266Z,993.04
2018-03-06T00:41:59.240Z,993.05
2018-03-06T00:42:59.210Z,993.03
2018-03-06T00:43:59.175Z,992.99
2018-03-06T00:44:59.146Z,992.99
2018-03-06T00:45:59.115Z,993.01
2018-03-06T00:46:59.087Z,993.03
2018-03-06T00:47:59.052Z,992.98
2018-03-06T00:48:59.018Z,993.00
2018-03-06T00:49:58.984Z,992.99
2018-03-06T00:50:58.962Z,992.95
2018-03-06T00:51:58.922Z,992.95
2018-03-06T00:52:58.896Z,992.91
2018-03-06T00:53:58.856Z,992.85
2018-03-06T00:54:58.833Z,992.86
2018-03-06T00:55:58.798Z,992.87
2018-03-06T00:56:58.767Z,992.87
2018-03-06T00:57:58.742Z,992.82
2018-03-06T00:58:58.704Z,992.77
2018-03-06T00:59:58.976Z,992.79
2018-03-06T01:00:58.639Z,992.75
2018-03-06T01:01:58.610Z,992.75
2018-03-06T01:02:58.581Z,992.81
2018-03-06T01:03:58.554Z,992.80
2018-03-06T01:04:58.817Z,992.80
2018-03-06T01:05:58.479Z,992.79
2018-03-06T01:06:58.450Z,992.77
2018-03-06T01:07:58.420Z,992.79
2018-03-06T01:08:58.389Z,992.79
2018-03-06T01:09:58.357Z,992.80
2018-03-06T01:10:58.324Z,992.82
2018-03-06T01:11:58.292Z,992.79
2018-03-06T01:12:58.261Z,992.77
2018-03-06T01:13:58.233Z,992.76
2018-03-06T01:14:58.199Z,992.74
2018-03-06T01:15:58.165Z,992.80
2018-03-06T01:16:58.134Z,992.81
2018-03-06T01:17:58.108Z,992.74
2018-03-06T01:18:58.070Z,992.70
2018-03-06T01:19:58.050Z,992.74
2018-03-06T01:20:58.012Z,992.77
2018-03-06T01:21:57.983Z,992.76
2018-03-06T01:22:58.196Z,992.72
2018-03-06T01:23:57.914Z,992.72
2018-03-06T01:24:57.885Z,992.74
2018-03-06T01:25:57.847Z,992.72
2018-03-06T01:26:57.817Z,992.69
2018-03-06T01:27:57.791Z,992.68
2018-03-06T01:28:57.754Z,992.69
2018-03-06T01:29:57.728Z,992.72
2018-03-06T01:30:57.693Z,992.67
2018-03-06T01:31:57.663Z,992.66
2018-03-06T01:32:57.634Z,992.61
2018-03-06T01:33:57.600Z,992.62
2018-03-06T01:34:57.566Z,992.67
2018-03-06T01:35:57.536Z,992.66
2018-03-06T01:36:57.504Z,992.60
2018-03-06T01:37:57.470Z,992.61
2018-03-06T01:38:57.434Z,992.58
2018-03-06T01:39:57.411Z,992.58
2018-03-06T01:40:57.383Z,992.58
2018-03-06T01:41:57.347Z,992.61
2018-03-06T01:42:57.311Z,992.60
2018-03-06T01:43:57.306Z,992.64
2018-03-06T01:44:57.248Z,992.59
2018-03-06T01:45:57.516Z,992.62
2018-03-06T01:46:57.187Z,992.62
2018-03-06T01:47:57.166Z,992.58
2018-03-06T01:48:57.125Z,992.57
2018-03-06T01:49:57.090Z,992.59
2018-03-06T01:50:57.052Z,992.55
2018-03-06T01:51:57.024Z,992.55
2018-03-06T01:52:56.997Z,992.55
2018-03-06T01:53:56.965Z,992.57
2018-03-06T01:54:56.936Z,992.52
2018-03-06T01:55:56.898Z,992.52
2018-03-06T01:56:56.864Z,992.55
2018-03-06T01:57:57.087Z,992.56
2018-03-06T01:58:56.808Z,992.47
2018-03-06T01:59:56.812Z,992.50
2018-03-06T02:00:56.745Z,992.48
2018-03-06T02:01:56.715Z,992.46
2018-03-06T02:02:56.679Z,992.37
2018-03-06T02:03:56.652Z,992.40
2018-03-06T02:04:56.624Z,992.43
2018-03-06T02:05:56.578Z,992.40
2018-03-06T02:06:56.547Z,992.37
2018-03-06T02:07:56.521Z,992.33
2018-03-06T02:08:56.486Z,992.34
2018-03-06T02:09:56.455Z,992.38
2018-03-06T02:10:56.431Z,992.35
2018-03-06T02:11:56.386Z,992.37
2018-03-06T02:12:56.361Z,992.36
2018-03-06T02:13:56.333Z,992.38
2018-03-06T02:14:56.299Z,992.40
2018-03-06T02:15:56.263Z,992.37
2018-03-06T02:16:56.237Z,992.35
2018-03-06T02:17:56.195Z,992.36
2018-03-06T02:18:56.168Z,992.35
2018-03-06T02:19:56.133Z,992.35
2018-03-06T02:20:56.102Z,992.37
2018-03-06T02:21:56.369Z,992.35
2018-03-06T02:22:56.033Z,992.37
2018-03-06T02:23:56.004Z,992.36
2018-03-06T02:24:55.975Z,992.34
2018-03-06T02:25:55.944Z,992.34
2018-03-06T02:26:55.912Z,992.36
2018-03-06T02:27:55.874Z,992.36
2018-03-06T02:28:55.845Z,992.34
2018-03-06T02:29:55.819Z,992.33
2018-03-06T02:30:55.783Z,992.30
2018-03-06T02:31:55.752Z,992.26
2018-03-06T02:32:55.724Z,992.25
2018-03-06T02:33:55.693Z,992.28
2018-03-06T02:34:55.654Z,992.24
2018-03-06T02:35:55.624Z,992.27
2018-03-06T02:36:55.593Z,992.26
2018-03-06T02:37:55.553Z,992.22
2018-03-06T02:38:55.524Z,992.25
2018-03-06T02:39:55.497Z,992.27
2018-03-06T02:40:55.457Z,992.26
2018-03-06T02:41:55.430Z,992.24
2018-03-06T02:42:55.395Z,992.24
2018-03-06T02:43:55.365Z,992.22
2018-03-06T02:44:55.581Z,992.23
2018-03-06T02:45:55.303Z,992.21
2018-03-06T02:46:55.273Z,992.26
2018-03-06T02:47:55.237Z,992.16
2018-03-06T02:48:55.216Z,992.17
2018-03-06T02:49:55.172Z,992.19
2018-03-06T02:50:55.140Z,992.17
2018-03-06T02:51:55.112Z,992.18
2018-03-06T02:52:55.078Z,992.20
2018-03-06T02:53:55.043Z,992.15
2018-03-06T02:54:55.012Z,992.13
2018-03-06T02:55:54.975Z,992.13
2018-03-06T02:56:55.194Z,992.08
2018-03-06T02:57:54.918Z,992.09
2018-03-06T02:58:54.885Z,992.07
2018-03-06T02:59:54.847Z,992.10
2018-03-06T03:00:54.823Z,992.11
2018-03-06T03:01:54.791Z,992.09
2018-03-06T03:02:54.757Z,992.09
2018-03-06T03:03:54.730Z,992.07
2018-03-06T03:04:54.689Z,992.08
2018-03-06T03:05:54.654Z,992.11
2018-03-06T03:06:54.633Z,992.11
2018-03-06T03:07:54.593Z,992.11
2018-03-06T03:08:54.567Z,992.11
2018-03-06T03:09:54.527Z,992.13
2018-03-06T03:10:54.502Z,992.13
2018-03-06T03:11:54.464Z,992.09
2018-03-06T03:12:54.733Z,992.11
2018-03-06T03:13:54.402Z,992.07
2018-03-06T03:14:54.372Z,992.10
2018-03-06T03:15:54.344Z,992.09
2018-03-06T03:16:54.300Z,992.09
2018-03-06T03:17:54.275Z,992.15
2018-03-06T03:18:54.243Z,992.12
2018-03-06T03:19:54.211Z,992.12
2018-03-06T03:20:54.188Z,992.11
2018-03-06T03:21:54.142Z,992.12
2018-03-06T03:22:54.112Z,992.14
2018-03-06T03:23:54.083Z,992.09
2018-03-06T03:24:54.057Z,992.08
2018-03-06T03:25:54.018Z,992.07
2018-03-06T03:26:53.981Z,992.05
2018-03-06T03:27:53.949Z,992.03
2018-03-06T03:28:53.921Z,991.99
2018-03-06T03:29:54.188Z,991.97
2018-03-06T03:30:53.858Z,991.93
2018-03-06T03:31:53.827Z,991.94
2018-03-06T03:32:53.791Z,991.94
2018-03-06T03:33:53.767Z,991.88
2018-03-06T03:34:53.736Z,991.92
2018-03-06T03:35:53.697Z,991.90
2018-03-06T03:36:53.677Z,991.90
2018-03-06T03:37:53.626Z,991.93
2018-03-06T03:38:53.602Z,991.94
2018-03-06T03:39:53.570Z,991.94
2018-03-06T03:40:53.535Z,991.95
2018-03-06T03:41:53.502Z,991.96
2018-03-06T03:42:53.470Z,991.96
2018-03-06T03:43:53.432Z,991.97
2018-03-06T03:44:53.401Z,991.98
2018-03-06T03:45:53.379Z,991.95
2018-03-06T03:46:53.346Z,991.95
2018-03-06T03:47:53.608Z,992.00
2018-03-06T03:48:53.277Z,991.98
2018-03-06T03:49:53.248Z,992.01
2018-03-06T03:50:53.216Z,992.00
2018-03-06T03:51:53.181Z,991.99
2018-03-06T03:52:53.147Z,991.98
2018-03-06T03:53:53.112Z,991.97
2018-03-06T03:54:53.079Z,992.00
2018-03-06T03:55:53.047Z,991.98
2018-03-06T03:56:53.017Z,992.02
2018-03-06T03:57:52.988Z,992.01
2018-03-06T03:58:52.956Z,992.00
2018-03-06T03:59:52.922Z,991.96
2018-03-06T04:00:52.893Z,991.96
2018-03-06T04:01:52.854Z,991.95
2018-03-06T04:02:52.821Z,991.93
2018-03-06T04:03:52.794Z,991.97
2018-03-06T04:04:52.761Z,991.94
2018-03-06T04:05:52.985Z,991.94
2018-03-06T04:06:52.695Z,991.97
2018-03-06T04:07:52.667Z,991.98
2018-03-06T04:08:52.623Z,992.00
2018-03-06T04:09:52.593Z,991.98
2018-03-06T04:10:52.570Z,991.98
2018-03-06T04:11:52.531Z,991.99
2018-03-06T04:12:52.493Z,992.02
2018-03-06T04:13:52.464Z,992.01
2018-03-06T04:14:52.431Z,992.03
2018-03-06T04:15:52.402Z,991.99
2018-03-06T04:16:52.376Z,992.06
2018-03-06T04:17:52.335Z,992.02
2018-03-06T04:18:52.299Z,992.03
2018-03-06T04:19:52.269Z,992.08
2018-03-06T04:20:52.236Z,992.06
2018-03-06T04:21:52.209Z,992.02
2018-03-06T04:22:52.176Z,992.01
2018-03-06T04:23:52.150Z,992.02
2018-03-06T04:24:52.108Z,992.05
2018-03-06T04:25:52.086Z,992.04
2018-03-06T04:26:52.051Z,992.08
2018-03-06T04:27:52.006Z,992.05
2018-03-06T04:28:51.974Z,992.03
2018-03-06T04:29:52.247Z,992.02
2018-03-06T04:30:51.922Z,992.00
2018-03-06T04:31:51.876Z,991.95
2018-03-06T04:32:51.848Z,991.97
2018-03-06T04:33:51.813Z,991.93
2018-03-06T04:34:51.780Z,991.93
2018-03-06T04:35:52.047Z,991.94
2018-03-06T04:36:51.719Z,991.95
2018-03-06T04:37:51.682Z,991.96
2018-03-06T04:38:51.649Z,991.88
2018-03-06T04:39:51.612Z,991.94
2018-03-06T04:40:51.584Z,991.93
2018-03-06T04:41:51.563Z,991.94
2018-03-06T04:42:51.526Z,991.94
2018-03-06T04:43:51.487Z,991.93
2018-03-06T04:44:51.451Z,991.95
2018-03-06T04:45:51.420Z,991.92
2018-03-06T04:46:51.392Z,991.87
2018-03-06T04:47:51.657Z,991.85
2018-03-06T04:48:51.327Z,991.90
2018-03-06T04:49:51.288Z,991.88
2018-03-06T04:50:51.267Z,991.88
2018-03-06T04:51:51.221Z,991.87
2018-03-06T04:52:51.197Z,991.85
2018-03-06T04:53:51.152Z,991.84
2018-03-06T04:54:51.120Z,991.82
2018-03-06T04:55:51.093Z,991.83
2018-03-06T04:56:51.057Z,991.84
2018-03-06T04:57:51.031Z,991.83
2018-03-06T04:58:51.003Z,991.83
2018-03-06T04:59:50.955Z,991.83
2018-03-06T05:00:50.926Z,991.86
2018-03-06T05:01:50.892Z,991.81
2018-03-06T05:02:50.865Z,991.81
2018-03-06T05:03:50.834Z,991.83
2018-03-06T05:04:50.796Z,991.80
2018-03-06T05:05:51.063Z,991.81
2018-03-06T05:06:50.725Z,991.78
2018-03-06T05:07:50.697Z,991.79
2018-03-06T05:08:50.668Z,991.79
2018-03-06T05:09:50.624Z,991.79
2018-03-06T05:10:50.594Z,991.76
2018-03-06T05:11:50.570Z,991.79
2018-03-06T05:12:50.529Z,991.76
2018-03-06T05:13:50.505Z,991.76
2018-03-06T05:14:50.466Z,991.81
2018-03-06T05:15:50.427Z,991.80
2018-03-06T05:16:50.649Z,991.78
2018-03-06T05:17:50.365Z,991.77
2018-03-06T05:18:50.343Z,991.76
2018-03-06T05:19:50.298Z,991.74
2018-03-06T05:20:50.267Z,991.76
2018-03-06T05:21:50.232Z,991.80
2018-03-06T05:22:50.202Z,991.78
2018-03-06T05:23:50.174Z,991.79
2018-03-06T05:24:50.142Z,991.82
2018-03-06T05:25:50.098Z,991.81
2018-03-06T05:26:50.104Z,991.81
2018-03-06T05:27:50.028Z,991.82
2018-03-06T05:28:50.000Z,991.82
2018-03-06T05:29:49.965Z,991.77
2018-03-06T05:30:49.934Z,991.79
2018-03-06T05:31:49.898Z,991.78
2018-03-06T05:32:49.862Z,991.77
2018-03-06T05:33:49.836Z,991.81
2018-03-06T05:34:49.805Z,991.80
2018-03-06T05:35:49.767Z,991.80
2018-03-06T05:36:49.738Z,991.79
2018-03-06T05:37:49.701Z,991.81
2018-03-06T05:38:49.667Z,991.72
2018-03-06T05:39:49.634Z,991.71
2018-03-06T05:40:49.612Z,991.76
2018-03-06T05:41:49.566Z,991.69
2018-03-06T05:42:49.533Z,991.70
2018-03-06T05:43:49.503Z,991.63
2018-03-06T05:44:49.464Z,991.60
2018-03-06T05:45:49.434Z,991.66
2018-03-06T05:46:49.756Z,991.68
2018-03-06T05:47:49.370Z,991.65
2018-03-06T05:48:49.343Z,991.65
2018-03-06T05:49:49.304Z,991.66
2018-03-06T05:50:49.271Z,991.68
2018-03-06T05:51:49.236Z,991.66
2018-03-06T05:52:49.200Z,991.67
2018-03-06T05:53:49.163Z,991.67
2018-03-06T05:54:49.138Z,991.68
2018-03-06T05:55:49.112Z,991.68
2018-03-06T05:56:49.078Z,991.70
2018-03-06T05:57:49.036Z,991.69
2018-03-06T05:58:49.255Z,991.72
2018-03-06T05:59:48.971Z,991.68
2018-03-06T06:00:48.942Z,991.69
2018-03-06T06:01:48.905Z,991.73
2018-03-06T06:02:48.867Z,991.74
2018-03-06T06:03:48.833Z,991.78
2018-03-06T06:04:48.806Z,991.74
2018-03-06T06:05:48.773Z,991.76
2018-03-06T06:06:48.742Z,991.78
2018-03-06T06:07:48.707Z,991.81
2018-03-06T06:08:48.971Z,991.78
2018-03-06T06:09:48.640Z,991.79
2018-03-06T06:10:48.598Z,991.83
2018-03-06T06:11:48.573Z,991.79
2018-03-06T06:12:48.538Z,991.79
2018-03-06T06:13:48.504Z,991.82
2018-03-06T06:14:48.468Z,991.78
2018-03-06T06:15:48.431Z,991.81
2018-03-06T06:16:48.402Z,991.82
2018-03-06T06:17:48.373Z,991.80
2018-03-06T06:18:48.350Z,991.83
2018-03-06T06:19:48.300Z,991.85
2018-03-06T06:20:48.269Z,991.82
2018-03-06T06:21:48.244Z,991.80
2018-03-06T06:22:48.207Z,991.79
2018-03-06T06:23:48.180Z,991.78
2018-03-06T06:24:48.150Z,991.80
2018-03-06T06:25:48.106Z,991.83
2018-03-06T06:26:48.069Z,991.85
2018-03-06T06:27:48.050Z,991.86
2018-03-06T06:28:48.011Z,991.86
2018-03-06T06:29:47.976Z,991.89
2018-03-06T06:30:47.938Z,991.86
2018-03-06T06:31:47.908Z,991.92
2018-03-06T06:32:47.883Z,991.89
2018-03-06T06:33:47.845Z,991.93
2018-03-06T06:34:47.815Z,991.96
2018-03-06T06:35:47.781Z,991.94
2018-03-06T06:36:47.744Z,991.95
2018-03-06T06:37:47.720Z,992.01
2018-03-06T06:38:47.686Z,991.99
2018-03-06T06:39:47.654Z,991.99
2018-03-06T06:40:47.621Z,992.01
2018-03-06T06:41:47.580Z,992.02
2018-03-06T06:42:47.598Z,992.01
2018-03-06T06:43:47.528Z,992.04
2018-03-06T06:44:47.504Z,992.03
2018-03-06T06:45:47.463Z,992.04
2018-03-06T06:46:47.456Z,992.03
2018-03-06T06:47:47.392Z,992.07
2018-03-06T06:48:47.361Z,992.05
2018-03-06T06:49:47.342Z,992.03
2018-03-06T06:50:47.604Z,992.01
2018-03-06T06:51:47.270Z,992.08
2018-03-06T06:52:47.231Z,992.05
2018-03-06T06:53:47.216Z,992.06
2018-03-06T06:54:47.172Z,992.07
2018-03-06T06:55:47.152Z,992.15
2018-03-06T06:56:47.117Z,992.15
2018-03-06T06:57:47.080Z,992.14
2018-03-06T06:58:47.050Z,992.19
2018-03-06T06:59:47.018Z,992.21
2018-03-06T07:00:47.000Z,992.21
2018-03-06T07:01:46.958Z,992.26
2018-03-06T07:02:46.931Z,992.21
2018-03-06T07:03:46.896Z,992.33
2018-03-06T07:04:46.870Z,992.33
2018-03-06T07:05:46.840Z,992.39
2018-03-06T07:06:46.813Z,992.32
2018-03-06T07:07:46.777Z,992.40
2018-03-06T07:08:46.743Z,992.43
2018-03-06T07:09:46.719Z,992.49
2018-03-06T07:10:46.702Z,992.47
2018-03-06T07:11:46.659Z,992.49
2018-03-06T07:12:46.632Z,992.50
2018-03-06T07:13:46.594Z,992.53
2018-03-06T07:14:46.576Z,992.63
2018-03-06T07:15:46.554Z,992.65
2018-03-06T07:16:46.509Z,992.60
2018-03-06T07:17:46.478Z,992.57
2018-03-06T07:18:46.448Z,992.58
2018-03-06T07:19:46.720Z,992.71
2018-03-06T07:20:46.462Z,992.73
2018-03-06T07:21:46.366Z,992.73
2018-03-06T07:22:46.337Z,992.75
2018-03-06T07:23:46.348Z,992.78
2018-03-06T07:24:46.277Z,992.80
2018-03-06T07:25:46.253Z,992.80
2018-03-06T07:26:46.222Z,992.83
2018-03-06T07:27:46.193Z,992.88
2018-03-06T07:28:46.160Z,992.95
2018-03-06T07:29:46.132Z,992.99
2018-03-06T07:30:46.103Z,993.04
2018-03-06T07:31:46.080Z,993.05
2018-03-06T07:32:46.049Z,993.00
2018-03-06T07:33:46.019Z,993.02
2018-03-06T07:34:45.988Z,992.93
2018-03-06T07:35:45.957Z,992.90
2018-03-06T07:36:45.933Z,992.85
2018-03-06T07:37:45.906Z,992.87
2018-03-06T07:38:45.889Z,992.83
2018-03-06T07:39:45.854Z,992.82
2018-03-06T07:40:45.817Z,992.81
2018-03-06T07:41:45.800Z,992.82
2018-03-06T07:42:45.771Z,992.83
2018-03-06T07:43:46.042Z,992.87
2018-03-06T07:44:45.713Z,992.87
2018-03-06T07:45:45.686Z,992.85
2018-03-06T07:46:45.658Z,992.87
2018-03-06T07:47:45.629Z,992.87
2018-03-06T07:48:45.960Z,992.88
2018-03-06T07:49:45.575Z,992.85
2018-03-06T07:50:45.545Z,992.90
2018-03-06T07:51:45.522Z,992.90
2018-03-06T07:52:45.495Z,992.91
2018-03-06T07:53:45.477Z,992.86
2018-03-06T07:54:45.443Z,992.81
2018-03-06T07:55:45.409Z,992.81
2018-03-06T07:56:45.390Z,992.80
2018-03-06T07:57:45.361Z,992.84
2018-03-06T07:58:45.342Z,992.94
2018-03-06T07:59:45.308Z,992.95
2018-03-06T08:00:45.284Z,992.96
2018-03-06T08:01:45.250Z,992.98
2018-03-06T08:02:45.223Z,993.07
2018-03-06T08:03:45.200Z,993.14
2018-03-06T08:04:45.174Z,993.13
2018-03-06T08:05:45.146Z,993.20
2018-03-06T08:06:45.118Z,993.23
2018-03-06T08:07:45.100Z,993.22
2018-03-06T08:08:45.064Z,993.30
2018-03-06T08:09:45.046Z,993.39
2018-03-06T08:10:45.021Z,993.41
2018-03-06T08:11:44.990Z,993.33
2018-03-06T08:12:45.268Z,993.42
2018-03-06T08:13:44.929Z,993.47
2018-03-06T08:14:44.937Z,993.45
2018-03-06T08:15:44.881Z,993.43
2018-03-06T08:16:44.853Z,993.41
2018-03-06T08:17:44.827Z,993.14
2018-03-06T08:18:44.806Z,993.22
2018-03-06T08:19:44.770Z,993.42
2018-03-06T08:20:44.752Z,993.54
2018-03-06T08:21:44.733Z,993.66
2018-03-06T08:22:44.705Z,993.62
2018-03-06T08:23:44.670Z,993.84
2018-03-06T08:24:44.653Z,993.83
2018-03-06T08:25:44.616Z,993.81
2018-03-06T08:26:44.592Z,993.80
2018-03-06T08:27:44.570Z,993.81
2018-03-06T08:28:44.543Z,993.81
2018-03-06T08:29:44.824Z,993.84
2018-03-06T08:30:44.489Z,993.82
2018-03-06T08:31:44.462Z,993.93
2018-03-06T08:32:44.439Z,993.86
2018-03-06T08:33:44.411Z,993.91
2018-03-06T08:34:44.381Z,993.98
2018-03-06T08:35:44.355Z,993.79
2018-03-06T08:36:44.335Z,993.76
2018-03-06T08:37:44.307Z,993.75
2018-03-06T08:38:44.288Z,993.79
2018-03-06T08:39:44.262Z,993.79
2018-03-06T08:40:44.235Z,993.70
2018-03-06T08:41:44.201Z,993.67
2018-03-06T08:42:44.176Z,993.65
2018-03-06T08:43:44.162Z,993.71
2018-03-06T08:44:44.130Z,993.64
2018-03-06T08:45:44.107Z,993.72
2018-03-06T08:46:44.078Z,993.89
2018-03-06T08:47:44.051Z,993.87
2018-03-06T08:48:44.036Z,993.54
2018-03-06T08:49:44.001Z,993.32
2018-03-06T08:50:43.979Z,993.17
2018-03-06T08:51:43.944Z,993.09
2018-03-06T08:52:43.925Z,993.06
2018-03-06T08:53:43.904Z,992.89
2018-03-06T08:54:43.873Z,993.07
2018-03-06T08:55:43.847Z,993.03
2018-03-06T08:56:43.823Z,993.03
2018-03-06T08:57:43.827Z,992.93
2018-03-06T08:58:43.777Z,992.94
2018-03-06T08:59:43.747Z,992.91
2018-03-06T09:00:43.721Z,992.96
2018-03-06T09:01:43.699Z,992.88
2018-03-06T09:02:43.671Z,992.93
2018-03-06T09:03:43.638Z,992.99
2018-03-06T09:04:43.919Z,992.94
2018-03-06T09:05:43.593Z,992.94
2018-03-06T09:06:43.575Z,992.91
2018-03-06T09:07:43.541Z,992.91
2018-03-06T09:08:43.526Z,992.88
2018-03-06T09:09:43.497Z,992.87
2018-03-06T09:10:43.720Z,992.84
2018-03-06T09:11:43.441Z,992.88
2018-03-06T09:12:43.418Z,992.85
2018-03-06T09:13:43.394Z,992.81
2018-03-06T09:14:43.364Z,992.65
2018-03-06T09:15:43.351Z,992.79
2018-03-06T09:16:43.325Z,992.74
2018-03-06T09:17:43.293Z,992.74
2018-03-06T09:18:43.271Z,992.65
2018-03-06T09:19:43.252Z,992.64
2018-03-06T09:20:43.221Z,992.70
2018-03-06T09:21:43.205Z,992.75
2018-03-06T09:22:43.179Z,992.66
2018-03-06T09:23:43.165Z,992.75
2018-03-06T09:24:43.125Z,992.66
2018-03-06T09:25:43.101Z,992.68
2018-03-06T09:26:43.083Z,992.61
2018-03-06T09:27:43.057Z,992.71
2018-03-06T09:28:43.026Z,992.72
2018-03-06T09:29:42.997Z,992.72
2018-03-06T09:30:43.012Z,992.64
2018-03-06T09:31:42.957Z,992.62
2018-03-06T09:32:42.934Z,992.57
2018-03-06T09:33:42.930Z,992.51
2018-03-06T09:34:42.877Z,992.50
2018-03-06T09:35:42.857Z,992.52
2018-03-06T09:36:42.833Z,992.47
2018-03-06T09:37:42.814Z,992.50
2018-03-06T09:38:42.794Z,992.49
2018-03-06T09:39:42.769Z,992.45
2018-03-06T09:40:42.745Z,992.51
2018-03-06T09:41:42.722Z,992.48
2018-03-06T09:42:42.693Z,992.48
2018-03-06T09:43:42.684Z,992.53
2018-03-06T09:44:42.647Z,992.51
2018-03-06T09:45:42.617Z,992.51
2018-03-06T09:46:42.595Z,992.49
2018-03-06T09:47:42.580Z,992.49
2018-03-06T09:48:42.551Z,992.46
2018-03-06T09:49:42.531Z,992.51
2018-03-06T09:50:42.525Z,992.51
2018-03-06T09:51:42.481Z,992.43
2018-03-06T09:52:42.454Z,992.46
2018-03-06T09:53:42.434Z,992.50
2018-03-06T09:54:42.414Z,992.48
2018-03-06T09:55:42.390Z,992.44
2018-03-06T09:56:42.367Z,992.48
2018-03-06T09:57:42.342Z,992.50
2018-03-06T09:58:42.326Z,992.45
2018-03-06T09:59:42.302Z,992.47
2018-03-06T10:00:42.279Z,992.37
2018-03-06T10:01:42.254Z,992.38
2018-03-06T10:02:42.231Z,992.38
2018-03-06T10:03:42.206Z,992.32
2018-03-06T10:04:42.438Z,992.29
2018-03-06T10:05:42.158Z,992.33
2018-03-06T10:06:42.131Z,992.33
2018-03-06T10:07:42.114Z,992.34
2018-03-06T10:08:42.090Z,992.37
2018-03-06T10:09:42.073Z,992.33
2018-03-06T10:10:42.046Z,992.37
2018-03-06T10:11:42.028Z,992.32
2018-03-06T10:12:42.004Z,992.28
2018-03-06T10:13:41.981Z,992.35
2018-03-06T10:14:41.967Z,992.36
2018-03-06T10:15:41.943Z,992.36
2018-03-06T10:16:41.921Z,992.36
2018-03-06T10:17:41.889Z,992.20
2018-03-06T10:18:41.870Z,992.33
2018-03-06T10:19:41.839Z,992.30
2018-03-06T10:20:41.819Z,992.29
2018-03-06T10:21:41.806Z,992.33
2018-03-06T10:22:41.775Z,992.36
2018-03-06T10:23:41.750Z,992.18
2018-03-06T10:24:41.736Z,992.18
2018-03-06T10:25:41.710Z,992.20
2018-03-06T10:26:41.691Z,992.24
2018-03-06T10:27:41.670Z,992.23
2018-03-06T10:28:41.638Z,992.20
2018-03-06T10:29:41.616Z,992.13
2018-03-06T10:30:41.589Z,992.19
2018-03-06T10:31:41.566Z,992.16
2018-03-06T10:32:41.550Z,992.16
2018-03-06T10:33:41.531Z,992.19
2018-03-06T10:34:41.509Z,992.17
2018-03-06T10:35:41.479Z,992.17
2018-03-06T10:36:41.461Z,992.18
2018-03-06T10:37:41.433Z,992.24
2018-03-06T10:38:41.679Z,992.13
2018-03-06T10:39:41.390Z,992.06
2018-03-06T10:40:41.375Z,992.10
2018-03-06T10:41:41.338Z,992.08
2018-03-06T10:42:41.324Z,992.11
2018-03-06T10:43:41.303Z,992.11
2018-03-06T10:44:41.278Z,992.09
2018-03-06T10:45:41.253Z,992.10
2018-03-06T10:46:41.232Z,992.16
2018-03-06T10:47:41.213Z,992.10
2018-03-06T10:48:41.185Z,992.12
2018-03-06T10:49:41.185Z,992.03
2018-03-06T10:50:41.145Z,991.94
2018-03-06T10:51:41.116Z,992.09
2018-03-06T10:52:41.095Z,992.08
2018-03-06T10:53:41.079Z,992.17
2018-03-06T10:54:41.056Z,992.03
2018-03-06T10:55:41.030Z,992.10
2018-03-06T10:56:41.009Z,992.12
2018-03-06T10:57:40.981Z,992.14
2018-03-06T10:58:40.964Z,992.16
2018-03-06T10:59:40.950Z,992.15
2018-03-06T11:00:40.925Z,992.22
2018-03-06T11:01:40.895Z,992.22
2018-03-06T11:02:40.876Z,992.18
2018-03-06T11:03:40.858Z,992.34
2018-03-06T11:04:40.829Z,992.35
2018-03-06T11:05:40.816Z,992.43
2018-03-06T11:06:40.786Z,992.38
2018-03-06T11:07:40.776Z,992.53
2018-03-06T11:08:40.743Z,992.58
2018-03-06T11:09:40.719Z,992.63
2018-03-06T11:10:40.696Z,992.59
2018-03-06T11:11:40.678Z,992.70
2018-03-06T11:12:40.656Z,992.88
2018-03-06T11:13:40.626Z,993.10
2018-03-06T11:14:40.605Z,993.21
2018-03-06T11:15:40.595Z,993.26
2018-03-06T11:16:40.561Z,993.41
2018-03-06T11:17:40.533Z,993.40
2018-03-06T11:18:40.524Z,993.63
2018-03-06T11:19:40.502Z,993.67
2018-03-06T11:20:40.477Z,993.81
2018-03-06T11:21:40.459Z,993.79
2018-03-06T11:22:40.442Z,993.64
2018-03-06T11:23:40.405Z,993.47
2018-03-06T11:24:40.412Z,993.35
2018-03-06T11:25:40.369Z,993.32
2018-03-06T11:26:40.342Z,993.19
2018-03-06T11:27:40.334Z,993.30
2018-03-06T11:28:40.311Z,993.22
2018-03-06T11:29:40.282Z,993.34
2018-03-06T11:30:40.280Z,993.24
2018-03-06T11:31:40.249Z,993.24
2018-03-06T11:32:40.253Z,993.28
2018-03-06T11:33:40.187Z,993.24
2018-03-06T11:34:40.183Z,993.13
2018-03-06T11:35:40.154Z,993.21
2018-03-06T11:36:40.130Z,993.05
2018-03-06T11:37:40.368Z,993.10
2018-03-06T11:38:40.097Z,993.12
2018-03-06T11:39:40.066Z,993.07
2018-03-06T11:40:40.053Z,993.11
2018-03-06T11:41:40.034Z,993.17
2018-03-06T11:42:40.006Z,993.15
2018-03-06T11:43:39.997Z,992.97
2018-03-06T11:44:40.004Z,993.10
2018-03-06T11:45:39.936Z,993.10
2018-03-06T11:46:39.927Z,992.98
2018-03-06T11:47:39.908Z,992.89
2018-03-06T11:48:39.880Z,993.15
2018-03-06T11:49:40.163Z,992.97
2018-03-06T11:50:39.834Z,992.83
2018-03-06T11:51:39.814Z,993.08
2018-03-06T11:52:39.792Z,993.02
2018-03-06T11:53:39.773Z,993.16
2018-03-06T11:54:39.763Z,993.20
2018-03-06T11:55:39.728Z,992.97
2018-03-06T11:56:39.726Z,993.13
2018-03-06T11:57:39.697Z,993.29
2018-03-06T11:58:39.673Z,993.23
2018-03-06T11:59:39.961Z,993.20
2018-03-06T12:00:39.634Z,993.23
2018-03-06T12:01:39.610Z,992.97
2018-03-06T12:02:39.587Z,993.19
2018-03-06T12:03:39.575Z,993.09
2018-03-06T12:04:39.547Z,993.01
2018-03-06T12:05:39.778Z,992.84
2018-03-06T12:06:39.507Z,992.85
2018-03-06T12:07:39.489Z,992.93
2018-03-06T12:08:39.465Z,992.80
2018-03-06T12:09:39.454Z,992.73
2018-03-06T12:10:39.430Z,992.89
2018-03-06T12:11:39.707Z,992.78
2018-03-06T12:12:39.388Z,992.74
2018-03-06T12:13:39.370Z,992.61
2018-03-06T12:14:39.354Z,992.54
2018-03-06T12:15:39.330Z,992.55
2018-03-06T12:16:39.309Z,992.47
2018-03-06T12:17:39.285Z,992.41
2018-03-06T12:18:39.283Z,992.33
2018-03-06T12:19:39.253Z,992.32
2018-03-06T12:20:39.232Z,992.40
2018-03-06T12:21:39.207Z,992.36
2018-03-06T12:22:39.190Z,992.50
2018-03-06T12:23:39.174Z,992.39
2018-03-06T12:24:39.145Z,992.34
2018-03-06T12:25:39.127Z,992.47
2018-03-06T12:26:39.121Z,992.33
2018-03-06T12:27:39.089Z,992.41